createdAt,value
2022-10-28T00:04:32.986Z,87.38
2022-10-28T00:09:36.122Z,87.15
2022-10-28T00:14:38.800Z,87.42
2022-10-28T00:19:41.350Z,87.39
2022-10-28T00:24:43.937Z,87.39
2022-10-28T00:29:46.512Z,87.46
2022-10-28T00:34:49.063Z,87.37
2022-10-28T00:39:51.621Z,87.06
2022-10-28T00:44:59.694Z,86.57
2022-10-28T00:50:20.916Z,86.83
2022-10-28T00:55:24.721Z,86.69
2022-10-28T01:00:27.682Z,87.09
2022-10-28T01:05:33.518Z,87.41
2022-10-28T01:10:59.233Z,86.88
2022-10-28T01:16:16.648Z,86.43
2022-10-28T01:21:51.605Z,85.79
2022-10-28T01:27:03.130Z,86.45
2022-10-28T01:32:17.456Z,85.97
2022-10-28T01:38:01.371Z,85.70
2022-10-28T01:43:16.329Z,85.50
2022-10-28T01:48:30.834Z,86.38
2022-10-28T01:53:38.312Z,85.98
2022-10-28T01:58:43.009Z,85.67
2022-10-28T02:03:47.738Z,85.54
2022-10-28T02:09:00.173Z,85.50
2022-10-28T02:14:24.420Z,85.24
2022-10-28T02:19:48.213Z,85.20
2022-10-28T02:25:08.105Z,84.94
2022-10-28T02:30:24.323Z,85.18
2022-10-28T02:35:57.714Z,85.19
2022-10-28T02:41:06.346Z,85.56
2022-10-28T02:46:11.206Z,84.99
2022-10-28T02:51:34.500Z,84.80
2022-10-28T02:56:49.296Z,84.79
2022-10-28T03:01:52.395Z,85.17
2022-10-28T03:06:55.097Z,85.33
2022-10-28T03:11:57.635Z,85.27
2022-10-28T03:17:00.306Z,85.56
2022-10-28T03:22:03.115Z,85.64
2022-10-28T03:27:05.765Z,85.43
2022-10-28T03:32:08.379Z,85.22
2022-10-28T03:37:11.062Z,85.35
2022-10-28T03:42:13.647Z,84.98
2022-10-28T03:47:16.342Z,85.09
2022-10-28T03:52:19.024Z,85.15
2022-10-28T03:57:21.563Z,85.01
2022-10-28T04:02:24.404Z,85.38
2022-10-28T04:07:27.037Z,85.02
2022-10-28T04:12:29.579Z,85.70
2022-10-28T04:17:34.636Z,85.55
2022-10-28T04:22:37.282Z,85.79
2022-10-28T04:27:39.896Z,86.10
2022-10-28T04:32:43.650Z,85.86
2022-10-28T04:37:46.285Z,85.96
2022-10-28T04:42:48.893Z,85.98
2022-10-28T04:47:57.324Z,86.45
2022-10-28T04:53:00.336Z,85.85
2022-10-28T04:58:02.993Z,85.95
2022-10-28T05:03:05.674Z,86.25
2022-10-28T05:08:08.365Z,86.03
2022-10-28T05:13:10.933Z,86.28
2022-10-28T05:18:13.546Z,86.08
2022-10-28T05:23:16.153Z,85.93
2022-10-28T05:28:19.178Z,86.22
2022-10-28T05:33:21.935Z,86.03
2022-10-28T05:43:53.340Z,86.93
2022-10-28T05:48:55.969Z,86.40
2022-10-28T05:53:58.610Z,86.86
2022-10-28T05:59:01.245Z,86.93
2022-10-28T06:04:04.937Z,87.18
2022-10-28T06:09:07.635Z,87.17
2022-10-28T06:14:08.760Z,87.54
2022-10-28T06:19:11.379Z,87.71
2022-10-28T06:24:14.058Z,88.61
2022-10-28T06:29:17.080Z,88.50
2022-10-28T06:34:20.201Z,88.15
2022-10-28T06:39:22.957Z,88.44
2022-10-28T06:44:25.566Z,87.82
2022-10-28T06:49:29.634Z,86.78
2022-10-28T06:54:32.183Z,86.50
2022-10-28T06:59:34.730Z,86.34
2022-10-28T07:04:37.698Z,86.16
2022-10-28T07:09:40.386Z,86.05
2022-10-28T07:14:42.917Z,85.87
2022-10-28T07:19:45.548Z,85.83
2022-10-28T07:24:49.031Z,85.28
2022-10-28T07:29:51.603Z,85.17
2022-10-28T07:34:54.279Z,84.92
2022-10-28T07:39:59.632Z,85.21
2022-10-28T07:45:02.292Z,84.27
2022-10-28T07:50:06.954Z,84.25
2022-10-28T07:55:13.072Z,83.37
2022-10-28T08:00:17.129Z,84.08
2022-10-28T08:05:20.408Z,82.75
2022-10-28T08:10:23.447Z,82.17
2022-10-28T08:15:32.130Z,81.75
2022-10-28T08:20:34.767Z,81.73
2022-10-28T08:25:37.877Z,81.01
2022-10-28T08:30:56.676Z,80.19
2022-10-28T08:36:00.626Z,80.42
2022-10-28T08:41:25.212Z,79.62
2022-10-28T08:47:01.555Z,79.13
2022-10-28T08:52:14.503Z,80.06
2022-10-28T08:57:21.577Z,79.00
2022-10-28T09:02:32.018Z,78.10
2022-10-28T09:07:37.438Z,77.25
2022-10-28T09:13:11.778Z,79.02
2022-10-28T09:18:23.437Z,79.69
2022-10-28T09:23:36.207Z,80.07
2022-10-28T09:34:44.845Z,77.35
2022-10-28T09:39:51.681Z,77.17
2022-10-28T09:45:05.178Z,77.62
2022-10-28T09:50:17.625Z,78.81
2022-10-28T09:55:22.479Z,79.21
2022-10-28T10:00:25.323Z,79.66
2022-10-28T10:05:30.458Z,78.42
2022-10-28T10:10:44.846Z,77.82
2022-10-28T10:15:54.175Z,77.25
2022-10-28T10:20:58.754Z,77.13
2022-10-28T10:26:12.508Z,77.61
2022-10-28T10:31:23.403Z,77.87
2022-10-28T10:36:29.151Z,78.06
2022-10-28T10:41:39.432Z,78.14
2022-10-28T10:46:42.122Z,77.67
2022-10-28T10:51:59.450Z,77.40
2022-10-28T10:57:20.991Z,76.99
2022-10-28T11:02:38.100Z,77.63
2022-10-28T11:07:48.326Z,77.60
2022-10-28T11:13:12.449Z,76.46
2022-10-28T11:18:21.050Z,76.19
2022-10-28T11:23:29.655Z,76.79
2022-10-28T11:28:37.290Z,76.10
2022-10-28T11:33:50.672Z,76.65
2022-10-28T11:39:25.561Z,76.84
2022-10-28T11:44:43.408Z,77.67
2022-10-28T11:49:52.571Z,77.28
2022-10-28T11:55:04.084Z,76.98
2022-10-28T12:00:33.695Z,76.40
2022-10-28T12:05:49.804Z,76.53
2022-10-28T12:11:15.552Z,76.40
2022-10-28T12:16:50.631Z,76.49
2022-10-28T12:22:00.106Z,76.99
2022-10-28T12:27:15.433Z,77.40
2022-10-28T12:32:28.188Z,77.62
2022-10-28T12:37:42.175Z,77.97
2022-10-28T12:42:54.469Z,78.62
2022-10-28T12:48:22.382Z,78.43
2022-10-28T12:53:49.043Z,78.52
2022-10-28T12:58:57.811Z,78.84
2022-10-28T13:04:01.496Z,79.11
2022-10-28T13:09:25.279Z,79.62
2022-10-28T13:14:39.525Z,79.91
2022-10-28T13:19:56.874Z,80.36
2022-10-28T13:24:59.454Z,80.38
2022-10-28T13:30:03.656Z,81.42
2022-10-28T13:35:11.873Z,81.06
2022-10-28T13:40:41.355Z,81.17
2022-10-28T13:45:55.173Z,81.44
2022-10-28T13:51:09.886Z,81.93
2022-10-28T13:56:21.190Z,81.63
2022-10-28T14:01:42.060Z,82.15
2022-10-28T14:06:44.917Z,82.57
2022-10-28T14:12:03.255Z,82.93
2022-10-28T14:17:14.597Z,83.60
2022-10-28T14:22:29.079Z,83.67
2022-10-28T14:27:41.834Z,84.12
2022-10-28T14:32:50.286Z,84.47
2022-10-28T14:38:11.184Z,85.13
2022-10-28T14:43:25.133Z,85.60
2022-10-28T14:48:56.168Z,85.48
2022-10-28T14:54:02.383Z,85.96
2022-10-28T14:59:26.062Z,86.22
2022-10-28T15:04:30.151Z,86.57
2022-10-28T15:09:35.111Z,87.20
2022-10-28T15:14:52.362Z,87.26
2022-10-28T15:19:57.543Z,87.84
2022-10-28T15:25:02.745Z,88.46
2022-10-28T15:30:20.916Z,88.41
2022-10-28T15:35:49.417Z,89.20
2022-10-28T15:40:52.572Z,89.36
2022-10-28T15:46:08.756Z,90.34
2022-10-28T15:51:17.363Z,90.26
2022-10-28T15:56:25.970Z,90.74
2022-10-28T16:01:38.359Z,90.79
2022-10-28T16:06:41.136Z,90.57
2022-10-28T16:11:53.435Z,90.96
2022-10-28T16:16:57.930Z,90.44
2022-10-28T16:22:00.521Z,90.79
2022-10-28T16:27:19.038Z,91.30
2022-10-28T16:32:49.096Z,91.41
2022-10-28T16:37:55.518Z,90.95
2022-10-28T16:42:58.783Z,90.96
2022-10-28T16:48:01.416Z,91.23
2022-10-28T16:53:04.090Z,91.33
2022-10-28T16:58:07.027Z,92.04
2022-10-28T17:03:17.060Z,92.66
2022-10-28T17:08:31.068Z,92.34
2022-10-28T17:13:39.566Z,91.30
2022-10-28T17:18:43.667Z,91.32
2022-10-28T17:23:46.357Z,91.38
2022-10-28T17:28:52.631Z,91.71
2022-10-28T17:33:55.667Z,91.58
2022-10-28T17:38:58.452Z,91.37
2022-10-28T17:44:01.276Z,91.65
2022-10-28T17:49:08.550Z,91.73
2022-10-28T17:54:11.566Z,91.65
2022-10-28T17:59:14.751Z,92.20
2022-10-28T18:04:17.453Z,92.43
2022-10-28T18:09:20.444Z,92.66
2022-10-28T18:14:23.223Z,92.56
2022-10-28T18:19:25.967Z,92.74
2022-10-28T18:24:28.548Z,92.89
2022-10-28T18:29:31.114Z,93.21
2022-10-28T18:34:33.856Z,93.18
2022-10-28T18:39:36.632Z,93.65
2022-10-28T18:44:39.215Z,93.72
2022-10-28T18:49:41.887Z,93.65
2022-10-28T18:54:44.393Z,94.11
2022-10-28T19:00:16.894Z,94.62
2022-10-28T19:05:09.593Z,95.60
2022-10-28T19:10:12.569Z,96.38
2022-10-28T19:15:15.909Z,96.54
2022-10-28T19:20:18.839Z,96.80
2022-10-28T19:25:21.463Z,96.58
2022-10-28T19:30:24.057Z,96.47
2022-10-28T19:35:26.687Z,96.87
2022-10-28T19:40:29.402Z,96.78
2022-10-28T19:45:32.156Z,97.44
2022-10-28T19:50:34.870Z,97.23
2022-10-28T19:55:37.506Z,97.25
2022-10-28T20:00:40.064Z,97.27
2022-10-28T20:05:42.685Z,97.17
2022-10-28T20:10:46.573Z,96.90
2022-10-28T20:15:49.153Z,97.01
2022-10-28T20:20:51.761Z,96.42
2022-10-28T20:25:54.359Z,96.85
2022-10-28T20:30:58.958Z,96.51
2022-10-28T20:36:01.942Z,96.76
2022-10-28T20:41:04.558Z,96.58
2022-10-28T20:46:09.350Z,96.75
2022-10-28T20:51:13.374Z,97.12
2022-10-28T20:56:21.094Z,97.07
2022-10-28T21:01:29.102Z,97.04
2022-10-28T21:06:32.734Z,96.72
2022-10-28T21:11:35.361Z,96.91
2022-10-28T21:16:37.955Z,97.25
2022-10-28T21:21:40.756Z,97.35
2022-10-28T21:26:46.074Z,98.37
2022-10-28T21:31:51.063Z,99.71
2022-10-28T21:36:53.611Z,99.58
2022-10-28T21:41:56.182Z,99.30
2022-10-28T21:46:59.026Z,98.52
2022-10-28T21:52:01.752Z,97.92
2022-10-28T21:57:05.290Z,98.15
2022-10-28T22:02:08.114Z,98.83
2022-10-28T22:07:10.820Z,98.94
2022-10-28T22:12:13.630Z,98.87
2022-10-28T22:17:16.197Z,99.40
2022-10-28T22:22:19.029Z,99.18
2022-10-28T22:27:21.807Z,99.00
2022-10-28T22:32:24.354Z,98.65
2022-10-28T22:37:26.949Z,98.75
2022-10-28T22:42:29.492Z,98.40
2022-10-28T22:47:32.056Z,98.50
2022-10-28T22:52:34.923Z,98.33
2022-10-28T22:57:37.513Z,98.52
2022-10-28T23:02:40.265Z,98.33
2022-10-28T23:07:42.956Z,98.98
2022-10-28T23:12:45.655Z,99.44
2022-10-28T23:17:49.419Z,99.58
2022-10-28T23:22:56.327Z,99.67
2022-10-28T23:27:59.124Z,99.33
2022-10-28T23:33:01.690Z,99.11
2022-10-28T23:38:05.344Z,98.50
2022-10-28T23:43:07.953Z,98.81
2022-10-28T23:48:10.513Z,98.52
2022-10-28T23:53:13.284Z,98.87
2022-10-28T23:58:17.400Z,98.96
